createdAt,value
2019-01-18T00:00:49.072Z,81.70
2019-01-18T00:05:53.212Z,82.60
2019-01-18T00:10:57.294Z,82.90
2019-01-18T00:16:01.367Z,82.55
2019-01-18T00:21:05.468Z,82.92
2019-01-18T00:26:09.323Z,83.53
2019-01-18T00:31:13.357Z,84.43
2019-01-18T00:36:17.259Z,84.41
2019-01-18T00:41:21.858Z,84.09
2019-01-18T00:46:25.942Z,83.87
2019-01-18T00:51:29.899Z,83.93
2019-01-18T00:56:33.983Z,84.04
2019-01-18T01:01:38.012Z,84.54
2019-01-18T01:06:42.011Z,84.90
2019-01-18T01:11:46.150Z,85.14
2019-01-18T01:16:50.183Z,85.65
2019-01-18T01:21:54.139Z,85.63
2019-01-18T01:26:58.099Z,85.70
2019-01-18T01:32:02.460Z,85.20
2019-01-18T01:37:06.299Z,85.78
2019-01-18T01:42:10.674Z,85.38
2019-01-18T01:47:14.719Z,85.54
2019-01-18T01:52:18.797Z,85.06
2019-01-18T01:57:22.907Z,84.88
2019-01-18T02:02:26.867Z,85.43
2019-01-18T02:07:30.922Z,85.55
2019-01-18T02:12:35.091Z,85.93
2019-01-18T02:17:39.182Z,85.66
2019-01-18T02:22:43.569Z,84.92
2019-01-18T02:27:47.881Z,84.55
2019-01-18T02:32:52.034Z,85.13
2019-01-18T02:37:56.088Z,85.35
2019-01-18T02:43:00.625Z,85.79
2019-01-18T02:48:04.681Z,85.65
2019-01-18T02:53:08.629Z,85.67
2019-01-18T02:58:12.798Z,85.84
2019-01-18T03:03:16.748Z,86.13
2019-01-18T03:08:21.290Z,86.44
2019-01-18T03:13:25.396Z,86.71
2019-01-18T03:18:29.453Z,86.48
2019-01-18T03:23:33.659Z,86.68
2019-01-18T03:28:37.755Z,86.96
2019-01-18T03:33:41.754Z,86.22
2019-01-18T03:38:46.022Z,85.75
2019-01-18T03:43:50.592Z,86.12
2019-01-18T03:48:54.538Z,86.18
2019-01-18T03:53:58.451Z,86.23
2019-01-18T03:59:02.641Z,85.07
2019-01-18T04:04:07.153Z,85.35
2019-01-18T04:09:12.134Z,85.58
2019-01-18T04:14:16.404Z,85.46
2019-01-18T04:19:20.665Z,85.18
2019-01-18T04:24:25.068Z,85.69
2019-01-18T04:29:29.298Z,86.14
2019-01-18T04:34:33.502Z,86.11
2019-01-18T04:39:37.736Z,85.32
2019-01-18T04:44:42.780Z,85.61
2019-01-18T04:49:46.846Z,86.08
2019-01-18T04:54:50.804Z,85.31
2019-01-18T04:59:54.774Z,85.15
2019-01-18T05:04:59.224Z,85.09
2019-01-18T05:10:03.880Z,85.00
2019-01-18T05:15:11.129Z,85.33
2019-01-18T05:20:15.390Z,85.55
2019-01-18T05:25:19.301Z,85.34
2019-01-18T05:30:27.687Z,85.53
2019-01-18T05:35:32.891Z,85.85
2019-01-18T05:40:37.082Z,85.76
2019-01-18T05:45:42.177Z,85.14
2019-01-18T05:50:46.244Z,85.86
2019-01-18T05:55:50.327Z,86.07
2019-01-18T06:00:58.946Z,86.01
2019-01-18T06:06:03.002Z,86.23
2019-01-18T06:11:08.295Z,85.49
2019-01-18T06:16:12.461Z,85.89
2019-01-18T06:21:16.515Z,85.17
2019-01-18T06:26:20.484Z,85.27
2019-01-18T06:31:24.347Z,84.80
2019-01-18T06:36:31.195Z,84.23
2019-01-18T06:41:54.276Z,83.96
2019-01-18T06:46:59.148Z,83.69
2019-01-18T06:52:04.806Z,82.78
2019-01-18T06:57:09.063Z,82.04
2019-01-18T07:02:13.155Z,80.87
2019-01-18T07:07:17.182Z,80.70
2019-01-18T07:12:21.400Z,79.47
2019-01-18T07:17:25.626Z,79.16
2019-01-18T07:22:29.669Z,77.97
2019-01-18T07:27:33.854Z,76.99
2019-01-18T07:32:38.161Z,76.76
2019-01-18T07:37:42.547Z,76.27
2019-01-18T07:42:46.948Z,75.46
2019-01-18T07:47:51.711Z,75.33
2019-01-18T07:52:55.902Z,75.12
2019-01-18T07:57:59.892Z,74.37
2019-01-18T08:03:04.160Z,73.45
2019-01-18T08:08:08.187Z,72.37
2019-01-18T08:13:12.270Z,71.92
2019-01-18T08:18:16.288Z,71.76
2019-01-18T08:23:20.459Z,71.58
2019-01-18T08:28:28.617Z,71.39
2019-01-18T08:33:33.128Z,70.68
2019-01-18T08:38:37.276Z,72.12
2019-01-18T08:43:42.060Z,71.83
2019-01-18T08:48:46.943Z,71.60
2019-01-18T08:53:50.803Z,71.40
2019-01-18T08:58:54.837Z,70.63
2019-01-18T09:03:58.975Z,70.63
2019-01-18T09:09:05.601Z,70.54
2019-01-18T09:14:10.269Z,70.12
2019-01-18T09:19:15.701Z,71.15
2019-01-18T09:24:19.777Z,70.34
2019-01-18T09:29:24.092Z,68.97
2019-01-18T09:34:28.089Z,66.80
2019-01-18T09:39:32.187Z,66.84
2019-01-18T09:44:36.321Z,66.47
2019-01-18T09:49:40.816Z,66.07
2019-01-18T09:54:44.825Z,65.14
2019-01-18T09:59:48.861Z,65.22
2019-01-18T10:04:52.918Z,65.73
2019-01-18T10:09:56.974Z,65.56
2019-01-18T10:15:01.280Z,65.26
2019-01-18T10:20:07.579Z,64.88
2019-01-18T10:25:13.623Z,64.45
2019-01-18T10:30:22.621Z,64.63
2019-01-18T10:35:26.972Z,65.03
2019-01-18T10:40:31.180Z,63.58
2019-01-18T10:45:35.149Z,62.67
2019-01-18T10:50:39.990Z,61.96
2019-01-18T10:55:44.327Z,62.11
2019-01-18T11:00:48.459Z,62.99
2019-01-18T11:05:52.445Z,61.76
2019-01-18T11:10:56.631Z,62.52
2019-01-18T11:16:00.789Z,61.36
2019-01-18T11:21:10.828Z,62.58
2019-01-18T11:26:15.105Z,61.38
2019-01-18T11:31:23.283Z,61.84
2019-01-18T11:36:25.224Z,62.75
2019-01-18T11:41:29.254Z,63.02
2019-01-18T11:46:33.391Z,63.74
2019-01-18T11:51:38.701Z,63.54
2019-01-18T11:56:42.681Z,62.64
2019-01-18T12:01:46.818Z,62.56
2019-01-18T12:06:50.794Z,62.50
2019-01-18T12:11:54.681Z,62.46
2019-01-18T12:17:00.165Z,62.11
2019-01-18T12:22:04.392Z,61.98
2019-01-18T12:27:09.026Z,63.42
2019-01-18T12:32:14.187Z,63.41
2019-01-18T12:37:18.969Z,64.78
2019-01-18T12:42:23.004Z,65.15
2019-01-18T12:47:27.083Z,63.15
2019-01-18T12:52:31.937Z,61.64
2019-01-18T12:57:36.218Z,63.23
2019-01-18T13:02:40.344Z,64.24
2019-01-18T13:07:44.991Z,65.27
2019-01-18T13:12:49.018Z,66.20
2019-01-18T13:17:52.991Z,66.14
2019-01-18T13:22:56.985Z,66.35
2019-01-18T13:28:01.277Z,65.71
2019-01-18T13:33:05.377Z,65.34
2019-01-18T13:38:09.730Z,65.28
2019-01-18T13:43:13.665Z,65.13
2019-01-18T13:48:18.190Z,66.33
2019-01-18T13:53:22.844Z,66.37
2019-01-18T13:58:27.061Z,64.68
2019-01-18T14:03:31.229Z,66.22
2019-01-18T14:08:35.161Z,67.37
2019-01-18T14:13:39.821Z,67.46
2019-01-18T14:18:43.887Z,67.85
2019-01-18T14:23:48.153Z,68.41
2019-01-18T14:28:52.231Z,68.72
2019-01-18T14:33:56.372Z,68.77
2019-01-18T14:39:00.614Z,69.12
2019-01-18T14:44:24.910Z,69.55
2019-01-18T14:49:32.459Z,70.22
2019-01-18T14:54:37.651Z,70.60
2019-01-18T14:59:41.865Z,70.30
2019-01-18T15:04:46.181Z,70.98
2019-01-18T15:09:50.108Z,71.71
2019-01-18T15:14:55.185Z,69.69
2019-01-18T15:19:59.836Z,70.10
2019-01-18T15:25:04.710Z,70.14
2019-01-18T15:30:11.175Z,70.57
2019-01-18T15:35:17.870Z,71.41
2019-01-18T15:40:24.274Z,72.87
2019-01-18T15:45:28.490Z,71.85
2019-01-18T15:50:35.115Z,73.90
2019-01-18T15:55:39.713Z,74.46
2019-01-18T16:00:44.370Z,74.59
2019-01-18T16:05:48.484Z,75.81
2019-01-18T16:10:52.661Z,76.50
2019-01-18T16:16:00.769Z,75.63
2019-01-18T16:21:05.499Z,74.75
2019-01-18T16:26:09.860Z,77.89
2019-01-18T16:31:14.409Z,75.82
2019-01-18T16:36:19.054Z,75.32
2019-01-18T16:41:30.068Z,74.86
2019-01-18T16:46:35.388Z,75.76
2019-01-18T16:51:40.235Z,75.82
2019-01-18T16:56:45.672Z,75.93
2019-01-18T17:01:52.604Z,76.26
2019-01-18T17:06:56.736Z,75.35
2019-01-18T17:12:00.882Z,75.71
2019-01-18T17:17:05.005Z,75.64
2019-01-18T17:22:09.108Z,75.67
2019-01-18T17:27:14.228Z,76.02
2019-01-18T17:32:18.317Z,75.68
2019-01-18T17:37:27.519Z,76.65
2019-01-18T17:43:14.309Z,75.94
2019-01-18T17:48:49.722Z,76.39
2019-01-18T17:54:34.340Z,76.32
2019-01-18T18:00:04.131Z,75.81
2019-01-18T18:06:06.625Z,75.72
2019-01-18T18:11:46.826Z,75.48
2019-01-18T18:17:01.670Z,75.17
2019-01-18T18:22:30.040Z,74.89
2019-01-18T18:27:58.175Z,74.72
2019-01-18T18:33:50.432Z,74.33
2019-01-18T18:39:40.262Z,74.01
2019-01-18T18:45:23.321Z,75.41
2019-01-18T18:51:08.197Z,74.47
2019-01-18T18:56:55.123Z,74.30
2019-01-18T19:02:33.063Z,73.12
2019-01-18T19:08:07.967Z,73.66
2019-01-18T19:14:02.595Z,73.70
2019-01-18T19:19:39.915Z,74.32
2019-01-18T19:25:23.140Z,73.14
2019-01-18T19:30:59.604Z,72.62
2019-01-18T19:36:12.584Z,72.33
2019-01-18T19:41:49.888Z,71.79
2019-01-18T19:47:39.628Z,71.68
2019-01-18T19:52:58.060Z,71.75
2019-01-18T19:58:48.379Z,72.27
2019-01-18T20:04:19.921Z,72.74
2019-01-18T20:09:53.355Z,68.96
2019-01-18T20:15:39.314Z,68.47
2019-01-18T20:21:20.573Z,68.03
2019-01-18T20:27:06.433Z,67.95
2019-01-18T20:33:14.971Z,68.36
2019-01-18T20:39:08.808Z,69.55
2019-01-18T20:44:47.247Z,69.19
2019-01-18T20:50:35.168Z,69.55
2019-01-18T20:56:15.281Z,69.10
2019-01-18T21:01:54.868Z,69.46
2019-01-18T21:07:36.904Z,68.61
2019-01-18T21:13:30.632Z,69.62
2019-01-18T21:18:53.436Z,69.28
2019-01-18T21:24:34.340Z,68.95
2019-01-18T21:30:29.054Z,67.58
2019-01-18T21:36:12.459Z,68.58
2019-01-18T21:41:38.356Z,67.21
2019-01-18T21:47:21.200Z,67.23
2019-01-18T21:52:52.147Z,67.14
2019-01-18T21:58:29.274Z,65.38
2019-01-18T22:04:02.832Z,65.50
2019-01-18T22:09:30.841Z,65.29
2019-01-18T22:15:15.864Z,65.58
2019-01-18T22:20:51.629Z,66.10
2019-01-18T22:26:43.226Z,67.74
2019-01-18T22:32:33.527Z,68.53
2019-01-18T22:38:03.568Z,68.07
2019-01-18T22:43:40.001Z,68.55
2019-01-18T22:49:30.567Z,68.59
2019-01-18T22:54:59.515Z,68.94
2019-01-18T23:00:51.658Z,69.18
2019-01-18T23:06:21.026Z,70.13
2019-01-18T23:12:00.396Z,71.43
2019-01-18T23:17:17.458Z,70.43
2019-01-18T23:22:57.804Z,70.05
2019-01-18T23:28:39.610Z,70.18
2019-01-18T23:34:05.690Z,70.50
2019-01-18T23:39:48.542Z,70.18
2019-01-18T23:45:11.675Z,70.60
2019-01-18T23:50:47.021Z,71.83
2019-01-18T23:56:17.149Z,71.51
